Flight Track Log - Related Links

Times and Time Zones

All times are in EDT time to prevent confusion due to time zone crossing. See the AWE1454 flight status page for this flight to view local times or setup timezone preferences in your user account.


Time Position Orientation Groundspeed Altitude Reporting Facility
EDT Latitude Longitude Course Direction KTS MPH feet Rate Location/Type
Tue 01:00:27 PM 33.6333 -84.4000 48° Northeast 158 182 2,000  Level Atlanta TRACON
Tue 01:02:00 PM 33.8418 -84.1622 73° East  Level Estimated
Tue 01:02:27 PM 33.6333 -84.2667 90° East 270 311 5,700  Level Atlanta TRACON
Tue 01:03:00 PM 33.9100 -84.0734 54° Northeast  Level Estimated
Tue 01:03:27 PM 33.6333 -84.1667 90° East 287 330 8,800  Level Atlanta TRACON
Tue 01:04:00 PM 33.8923 -83.9542 100° East  Level FlightAware Approximate
Tue 01:04:53 PM 33.6772 -84.0414 67° East 294 338 11,600  Level Atlanta Center
Tue 01:05:00 PM 33.9610 -83.8659 48° Northeast  Level Estimated
Tue 01:05:53 PM 33.7461 -83.9539 47° Northeast 345 397 14,200  Level Atlanta Center
Tue 01:06:53 PM 33.8169 -83.8664 46° Northeast 358 412 16,800 2,050 Climbing Atlanta Center
Tue 01:07:53 PM 33.8878 -83.7711 48° Northeast 375 432 18,300 1,750 Climbing Atlanta Center
Tue 01:08:53 PM 33.9606 -83.6681 50° Northeast 391 450 20,300 2,050 Climbing Atlanta Center
Tue 01:09:53 PM 34.0292 -83.5600 53° Northeast 404 465 22,400 1,800 Climbing Atlanta Center
Tue 01:10:53 PM 34.0997 -83.4467 53° Northeast 420 483 23,900 1,600 Climbing Atlanta Center
Tue 01:11:53 PM 34.1783 -83.3206 53° Northeast 420 483 25,600 1,500 Climbing Atlanta Center
Tue 01:12:53 PM 34.2547 -83.1994 53° Northeast 427 491 26,900 1,300 Climbing Atlanta Center
Tue 01:13:53 PM 34.3289 -83.0778 54° Northeast 439 505 28,200 1,600 Climbing Atlanta Center
Tue 01:14:53 PM 34.4053 -82.9561 53° Northeast 447 514 30,100 1,650 Climbing Atlanta Center
Tue 01:15:53 PM 34.4814 -82.8392 52° Northeast 447 514 31,500 1,200 Climbing Atlanta Center
Tue 01:16:53 PM 34.5531 -82.7172 54° Northeast 436 502 32,500 1,250 Climbing Atlanta Center
Tue 01:17:53 PM 34.6269 -82.5975 53° Northeast 441 507 34,000 1,300 Climbing Atlanta Center
Tue 01:18:53 PM 34.6903 -82.4953 53° Northeast 435 501 35,100 900 Climbing Atlanta Center
Tue 01:19:53 PM 34.7617 -82.3750 54° Northeast 435 501 35,800 800 Climbing Atlanta Center
Tue 01:20:53 PM 34.8289 -82.2522 56° Northeast 441 507 36,700 600 Climbing Atlanta Center
Tue 01:21:53 PM 34.8853 -82.1194 63° Northeast 441 507 37,000 150 Climbing Atlanta Center
Tue 01:22:53 PM 34.9458 -81.9836 61° Northeast 448 516 37,000  Level Atlanta Center
Tue 01:23:53 PM 35.0081 -81.8428 62° Northeast 453 521 37,000  Level Atlanta Center
Tue 01:24:53 PM 35.0808 -81.7139 55° Northeast 464 534 37,000  Level Atlanta Center
Tue 01:25:53 PM 35.1533 -81.5822 56° Northeast 464 534 37,000  Level Atlanta Center
Tue 01:26:53 PM 35.2239 -81.4583 55° Northeast 455 524 37,000  Level Atlanta Center
Tue 01:27:53 PM 35.2939 -81.3289 56° Northeast 455 524 37,000  Level Atlanta Center
Tue 01:28:53 PM 35.3664 -81.2017 55° Northeast 455 524 37,000  Level Atlanta Center
Tue 01:29:53 PM 35.4364 -81.0769 55° Northeast 450 518 37,000  Level Atlanta Center
Tue 01:30:53 PM 35.5061 -80.9492 56° Northeast 450 518 37,000  Level Atlanta Center
Tue 01:31:53 PM 35.5761 -80.8267 55° Northeast 450 518 37,000  Level Atlanta Center
Tue 01:32:53 PM 35.6458 -80.7039 55° Northeast 450 518 37,000  Level Atlanta Center
Tue 01:35:22 PM 35.8222 -80.3825 56° Northeast 439 505 37,000  Level Washington Center
Tue 01:36:22 PM 35.8939 -80.2561 55° Northeast 439 505 37,000  Level Washington Center
Tue 01:37:22 PM 35.9594 -80.1289 57° Northeast 439 505 37,000  Level Washington Center
Tue 01:38:22 PM 36.0239 -80.0222 53° Northeast 434 499 37,000  Level Washington Center
Tue 01:39:22 PM 36.0953 -79.8950 55° Northeast 440 506 37,000  Level Washington Center
Tue 01:40:22 PM 36.1714 -79.7553 56° Northeast 435 501 37,000  Level Washington Center
Tue 01:41:22 PM 36.2336 -79.6400 56° Northeast 442 509 37,000  Level Washington Center
Tue 01:42:22 PM 36.3089 -79.5100 54° Northeast 430 495 37,000  Level Washington Center
Tue 01:43:22 PM 36.3708 -79.4047 54° Northeast 425 489 37,000  Level Washington Center
Tue 01:44:22 PM 36.4394 -79.2789 56° Northeast 425 489 37,000  Level Washington Center
Tue 01:45:22 PM 36.5122 -79.1481 55° Northeast 425 489 37,000  Level Washington Center
Tue 01:46:22 PM 36.5803 -79.0347 53° Northeast 419 482 37,000  Level Washington Center
Tue 01:47:22 PM 36.6483 -78.9108 56° Northeast 419 482 37,000  Level Washington Center
Tue 01:48:22 PM 36.7103 -78.7864 58° Northeast 419 482 37,000  Level Washington Center
Tue 01:49:22 PM 36.7714 -78.6775 55° Northeast 419 482 37,000 -200 Level Washington Center
Tue 01:50:22 PM 36.8369 -78.5581 56° Northeast 419 482 36,600 -700 Descending Washington Center
Tue 01:51:22 PM 36.8983 -78.4464 55° Northeast 405 466 35,600 -1,050 Descending Washington Center
Tue 01:52:22 PM 36.9700 -78.3136 56° Northeast 410 472 34,500 -1,050 Descending Washington Center
Tue 01:53:22 PM 37.0392 -78.2069 51° Northeast 410 472 33,500 -1,150 Descending Washington Center
Tue 01:54:22 PM 37.1178 -78.1469 31° Northeast 371 427 32,200 -1,350 Descending Washington Center
Tue 01:55:22 PM 37.2067 -78.0794 31° Northeast 366 421 30,800 -1,400 Descending Washington Center
Tue 01:56:22 PM 37.2958 -78.0094 32° Northeast 366 421 29,400 -900 Descending Washington Center
Tue 01:57:22 PM 37.3806 -77.9414 33° Northeast 371 427 29,000 -200 Descending Washington Center
Tue 01:58:22 PM 37.4653 -77.8761 31° Northeast 365 420 29,000  Level Washington Center
Tue 01:59:22 PM 37.5500 -77.8078 33° Northeast 365 420 29,000  Level Washington Center
Tue 02:00:22 PM 37.6328 -77.7317 36° Northeast 365 420 29,000  Level Washington Center
Tue 02:01:22 PM 37.7175 -77.6553 35° Northeast 365 420 29,000  Level Washington Center
Tue 02:02:22 PM 37.8044 -77.5789 35° Northeast 365 420 29,000  Level Washington Center
Tue 02:03:22 PM 37.8911 -77.4994 36° Northeast 370 426 29,000  Level Washington Center
Tue 02:04:22 PM 37.9781 -77.4147 38° Northeast 375 432 29,000  Level Washington Center
Tue 02:05:22 PM 38.0644 -77.3431 33° Northeast 380 437 29,000  Level Washington Center
Tue 02:06:22 PM 38.1639 -77.2503 36° Northeast 388 447 29,000  Level Washington Center
Tue 02:07:22 PM 38.2442 -77.1753 36° Northeast 393 452 29,000 -200 Level Washington Center
Tue 02:08:22 PM 38.3411 -77.0847 36° Northeast 393 452 28,600 -850 Descending Washington Center
Tue 02:09:22 PM 38.4297 -77.0044 35° Northeast 393 452 27,300 -1,300 Descending Washington Center
Tue 02:10:22 PM 38.5161 -76.9236 36° Northeast 387 445 26,000 -1,300 Descending Washington Center
Tue 02:11:22 PM 38.5983 -76.8428 38° Northeast 387 445 24,700 -1,000 Descending Washington Center
Tue 02:12:22 PM 38.6806 -76.7644 37° Northeast 376 433 24,000 -900 Descending Washington Center
Tue 02:13:22 PM 38.7253 -76.6428 65° Northeast 370 426 22,900 -1,400 Descending Washington Center
Tue 02:14:22 PM 38.7514 -76.5128 76° East 360 414 21,200 -1,700 Descending Washington Center
Tue 02:15:22 PM 38.7772 -76.3853 75° East 365 420 19,500 -1,650 Descending Washington Center
Tue 02:16:22 PM 38.8031 -76.2603 75° East 365 420 17,900 -1,500 Descending Washington Center
Tue 02:17:22 PM 38.8308 -76.1486 72° East 355 409 16,500 -1,450 Descending Washington Center
Tue 02:18:22 PM 38.8519 -76.0289 77° East 355 409 15,000 -750 Descending Washington Center
Tue 02:19:22 PM 38.8775 -75.9142 74° East 348 400 15,000 -150 Level Washington Center
Tue 02:20:22 PM 38.9194 -75.8103 63° Northeast 337 388 14,700 -650 Descending Washington Center
Tue 02:21:22 PM 38.9925 -75.7411 36° Northeast 310 357 13,700 -1,000 Descending Washington Center
Tue 02:22:22 PM 39.0675 -75.6797 32° Northeast 310 357 12,700 -1,020 Descending Washington Center
Tue 02:23:02 PM 39.1267 -75.6706 North 307 353 12,000 -700 Descending FAA TRACON SMA TRACON (SMA)
Tue 02:23:22 PM 39.1589 -75.6667 North 305 351 12,000 -150 Level FAA TRACON SMA TRACON (SMA)
Tue 02:23:42 PM 39.1864 -75.6639 North 306 352 11,900 -1,200 Descending FAA TRACON SMA TRACON (SMA)
Tue 02:24:02 PM 39.2114 -75.6611 North 305 351 11,200 -1,950 Descending FAA TRACON SMA TRACON (SMA)
Tue 02:24:22 PM 39.2444 -75.6581 North 306 352 10,600 -1,650 Descending FAA TRACON SMA TRACON (SMA)
Tue 02:24:42 PM 39.2689 -75.6672 344° North 302 348 10,100 -900 Descending FAA TRACON SMA TRACON (SMA)
Tue 02:25:02 PM 39.2925 -75.6858 329° Northwest 272 313 10,000 -150 Descending FAA TRACON SMA TRACON (SMA)
Tue 02:25:22 PM 39.3144 -75.7019 330° Northwest 269 310 10,000  Level FAA TRACON SMA TRACON (SMA)
Tue 02:25:42 PM 39.3361 -75.7186 329° Northwest 279 321 10,000 -300 Level FAA TRACON SMA TRACON (SMA)
Tue 02:26:02 PM 39.3567 -75.7344 329° Northwest 278 320 9,800 -1,200 Descending FAA TRACON SMA TRACON (SMA)
Tue 02:26:22 PM 39.3822 -75.7539 330° Northwest 277 319 9,200 -1,350 Descending FAA TRACON SMA TRACON (SMA)
Tue 02:26:42 PM 39.4022 -75.7703 328° Northwest 278 320 8,900 -1,350 Descending FAA TRACON SMA TRACON (SMA)
Tue 02:27:02 PM 39.4247 -75.7872 330° Northwest 276 318 8,300 -1,050 Descending FAA TRACON SMA TRACON (SMA)
Tue 02:27:22 PM 39.4475 -75.8039 331° Northwest 271 312 8,200 -300 Descending FAA TRACON SMA TRACON (SMA)
Tue 02:27:42 PM 39.4681 -75.8075 352° North 241 277 8,100 -300 Descending FAA TRACON SMA TRACON (SMA)
Tue 02:28:02 PM 39.4867 -75.7903 36° Northeast 237 273 8,000 -150 Descending FAA TRACON SMA TRACON (SMA)
Tue 02:28:22 PM 39.4892 -75.7628 83° East 236 272 8,000  Level FAA TRACON SMA TRACON (SMA)
Tue 02:28:42 PM 39.4789 -75.7403 121° Southeast 235 270 8,000  Level FAA TRACON SMA TRACON (SMA)
Tue 02:29:02 PM 39.4633 -75.7178 132° Southeast 237 273 8,000  Level FAA TRACON SMA TRACON (SMA)
Tue 02:29:22 PM 39.4503 -75.6942 126° Southeast 240 276 8,000  Level FAA TRACON SMA TRACON (SMA)
Tue 02:29:42 PM 39.4375 -75.6733 128° Southeast 239 275 8,000  Level FAA TRACON SMA TRACON (SMA)
Tue 02:30:02 PM 39.4247 -75.6528 129° Southeast 239 275 8,000  Level FAA TRACON SMA TRACON (SMA)
Tue 02:30:43 PM 39.3997 -75.6031 123° Southeast 241 277 8,000 -300 Level FAA TRACON SMA TRACON (SMA)
Tue 02:31:02 PM 39.4017 -75.5769 84° East 229 264 7,700 -923 Descending FAA TRACON SMA TRACON (SMA)
Tue 02:31:22 PM 39.4061 -75.5442 80° East 236 272 7,400 -750 Descending FAA TRACON SMA TRACON (SMA)
Tue 02:31:42 PM 39.4100 -75.5189 79° East 235 270 7,200 -600 Descending FAA TRACON SMA TRACON (SMA)
Tue 02:32:02 PM 39.4139 -75.4900 80° East 232 267 7,000 -300 Descending FAA TRACON SMA TRACON (SMA)
Tue 02:32:22 PM 39.4192 -75.4644 75° East 229 264 7,000  Level FAA TRACON SMA TRACON (SMA)
Tue 02:32:42 PM 39.4225 -75.4386 81° East 228 262 7,000  Level FAA TRACON SMA TRACON (SMA)
Tue 02:33:02 PM 39.4269 -75.4075 80° East 229 264 7,000  Level FAA TRACON SMA TRACON (SMA)
Tue 02:33:22 PM 39.4311 -75.3833 77° East 221 254 7,000  Level FAA TRACON SMA TRACON (SMA)
Tue 02:33:42 PM 39.4350 -75.3581 79° East 229 264 7,000  Level FAA TRACON SMA TRACON (SMA)
Tue 02:34:02 PM 39.4397 -75.3278 79° East 227 261 7,000 -150 Level FAA TRACON SMA TRACON (SMA)
Tue 02:34:22 PM 39.4439 -75.3028 78° East 227 261 6,900 -462 Descending FAA TRACON SMA TRACON (SMA)
Tue 02:34:41 PM 39.4481 -75.2786 77° East 226 260 6,700 -769 Descending FAA TRACON SMA TRACON (SMA)
Tue 02:35:01 PM 39.4522 -75.2553 77° East 221 254 6,400 -900 Descending FAA TRACON SMA TRACON (SMA)
Tue 02:35:21 PM 39.4728 -75.2406 29° Northeast 230 265 6,100 -600 Descending FAA TRACON SMA TRACON (SMA)
Tue 02:35:41 PM 39.4908 -75.2444 351° North 218 251 6,000 -150 Descending FAA TRACON SMA TRACON (SMA)
Tue 02:36:01 PM 39.5097 -75.2567 333° Northwest 219 252 6,000  Level FAA TRACON SMA TRACON (SMA)
Tue 02:36:22 PM 39.5300 -75.2661 340° North 221 254 6,000  Level FAA TRACON SMA TRACON (SMA)
Tue 02:36:42 PM 39.5475 -75.2764 336° Northwest 223 257 6,000  Level FAA TRACON SMA TRACON (SMA)
Tue 02:37:01 PM 39.5678 -75.2853 341° North 221 254 6,000  Level FAA TRACON SMA TRACON (SMA)
Tue 02:37:21 PM 39.5869 -75.2978 333° Northwest 222 255 6,000  Level FAA TRACON SMA TRACON (SMA)
Tue 02:37:41 PM 39.6050 -75.3075 337° Northwest 221 254 6,000  Level FAA TRACON SMA TRACON (SMA)
Tue 02:38:01 PM 39.6222 -75.3167 338° Northwest 221 254 6,000  Level FAA TRACON SMA TRACON (SMA)
Tue 02:38:21 PM 39.6439 -75.3289 337° Northwest 222 255 6,000  Level FAA TRACON SMA TRACON (SMA)
Tue 02:38:41 PM 39.6617 -75.3386 337° Northwest 222 255 6,000  Level FAA TRACON SMA TRACON (SMA)
Tue 02:39:02 PM 39.6792 -75.3481 337° Northwest 222 255 6,000  Level FAA TRACON SMA TRACON (SMA)
Tue 02:39:22 PM 39.7017 -75.3603 337° Northwest 222 255 6,000  Level FAA TRACON SMA TRACON (SMA)
Tue 02:39:42 PM 39.7192 -75.3708 335° Northwest 225 259 6,000  Level FAA TRACON SMA TRACON (SMA)
Tue 02:40:02 PM 39.7289 -75.3906 303° West 210 242 6,000  Level FAA TRACON SMA TRACON (SMA)
Tue 02:40:21 PM 39.7297 -75.4175 272° West 191 220 6,000  Level FAA TRACON SMA TRACON (SMA)
Tue 02:40:41 PM 39.7250 -75.4408 255° West 213 245 6,000  Level FAA TRACON SMA TRACON (SMA)
Tue 02:41:02 PM 39.7200 -75.4628 254° West 206 237 6,000 -293 Level FAA TRACON SMA TRACON (SMA)
Tue 02:41:22 PM 39.7153 -75.4892 257° West 201 231 5,800 -750 Descending FAA TRACON SMA TRACON (SMA)
Tue 02:41:42 PM 39.7097 -75.5094 250° West 193 222 5,500 -900 Descending FAA TRACON SMA TRACON (SMA)
Tue 02:42:02 PM 39.7058 -75.5289 255° West 185 213 5,200 -750 Descending FAA TRACON SMA TRACON (SMA)
Tue 02:42:22 PM 39.7000 -75.5525 252° West 180 207 5,000 -300 Descending FAA TRACON SMA TRACON (SMA)
Tue 02:42:42 PM 39.6953 -75.5717 252° West 180 207 5,000  Level FAA TRACON SMA TRACON (SMA)
Tue 02:43:02 PM 39.6906 -75.5911 252° West 182 209 5,000  Level FAA TRACON SMA TRACON (SMA)
Tue 02:43:22 PM 39.6928 -75.6156 277° West 182 209 5,000  Level FAA TRACON SMA TRACON (SMA)
Tue 02:43:42 PM 39.7067 -75.6236 336° Northwest 180 207 5,000  Level FAA TRACON SMA TRACON (SMA)
Tue 02:44:02 PM 39.7225 -75.6250 356° North 184 212 5,000 -450 Level FAA TRACON SMA TRACON (SMA)
Tue 02:44:22 PM 39.7414 -75.6258 358° North 179 206 4,700 -750 Descending FAA TRACON SMA TRACON (SMA)
Tue 02:44:42 PM 39.7567 -75.6269 357° North 179 206 4,500 -750 Descending FAA TRACON SMA TRACON (SMA)
Tue 02:45:02 PM 39.7714 -75.6236 10° North 181 208 4,200 -900 Descending FAA TRACON SMA TRACON (SMA)

Login

Don't have an account? Register now (free) for customized features, flight alerts, and more!